Time;durP1;ratioP1;P1;durP2;ratioP2;P2;SDS_P1;SDS_P2;PMS_P1;PMS_P2;Temp;Humidity;BMP_temperature;BMP_pressure;BME280_temperature;BME280_humidity;BME280_pressure;Samples;Min_cycle;Max_cycle;Signal;HPM_P1;HPM_P2
2023/08/29 00:00:14;;;;;;;6.57;3.78;;;;;;;13.78;52.16;99548.72;5092524;28;20026;-65
2023/08/29 00:02:42;;;;;;;6.45;3.60;;;;;;;13.81;52.46;99531.44;5057653;28;20397;-64
2023/08/29 00:05:09;;;;;;;5.50;3.38;;;;;;;13.56;52.59;99506.97;5074631;28;20401;-64
2023/08/29 00:07:36;;;;;;;7.47;3.38;;;;;;;13.68;52.62;99530.94;5092904;28;20032;-64
2023/08/29 00:10:02;;;;;;;7.38;3.45;;;;;;;13.78;52.33;99551.41;5093718;28;20058;-64
2023/08/29 00:12:32;;;;;;;7.55;3.65;;;;;;;13.53;52.44;99507.28;5095883;28;20496;-64
2023/08/29 00:14:58;;;;;;;5.07;3.13;;;;;;;13.78;52.15;99542.50;5096783;28;20040;-64
2023/08/29 00:17:24;;;;;;;12.45;3.63;;;;;;;13.87;52.01;99552.34;5096598;28;20035;-64
2023/08/29 00:19:50;;;;;;;6.35;3.83;;;;;;;13.91;52.08;99550.22;5061570;28;20027;-64
2023/08/29 00:22:15;;;;;;;9.40;4.22;;;;;;;13.85;52.29;99538.22;5096175;28;20115;-65
2023/08/29 00:24:44;;;;;;;11.18;4.45;;;;;;;13.77;52.01;99516.59;5078305;28;20332;-64
2023/08/29 00:27:12;;;;;;;5.90;3.63;;;;;;;14.01;52.02;99544.75;5078931;28;20024;-64
2023/08/29 00:29:38;;;;;;;9.48;3.50;;;;;;;14.08;51.85;99540.44;5095953;28;20067;-64
2023/08/29 00:32:04;;;;;;;8.55;3.08;;;;;;;14.13;51.70;99562.38;5096199;28;20078;-62
2023/08/29 00:34:29;;;;;;;5.97;3.40;;;;;;;14.19;51.43;99544.75;5096618;28;20130;-65
2023/08/29 00:36:55;;;;;;;6.80;3.45;;;;;;;14.03;51.38;99503.22;5095557;28;20111;-64
2023/08/29 00:39:21;;;;;;;11.15;3.58;;;;;;;14.25;51.04;99527.16;5095690;28;20032;-63
2023/08/29 00:41:49;;;;;;;7.90;3.60;;;;;;;14.28;51.07;99534.91;5095734;28;20032;-63
2023/08/29 00:44:15;;;;;;;7.95;3.65;;;;;;;14.29;51.10;99539.28;5095610;28;20397;-64
2023/08/29 00:46:43;;;;;;;10.30;3.97;;;;;;;14.32;51.28;99534.41;5096461;28;20023;-65
2023/08/29 00:49:09;;;;;;;7.88;3.45;;;;;;;14.36;51.12;99529.59;5095991;28;20107;-64
2023/08/29 00:51:35;;;;;;;11.82;3.90;;;;;;;14.40;50.99;99528.25;5095394;28;20059;-64
2023/08/29 00:54:03;;;;;;;5.88;3.80;;;;;;;14.33;50.89;99519.97;5078451;28;20119;-64
2023/08/29 00:56:29;;;;;;;6.38;3.70;;;;;;;14.43;50.78;99524.44;5095957;28;20469;-67
2023/08/29 00:58:54;;;;;;;7.20;3.63;;;;;;;14.36;50.69;99516.13;5095578;28;20074;-64
2023/08/29 01:01:20;;;;;;;8.38;3.45;;;;;;;14.35;50.80;99511.72;5095422;28;20043;-65
2023/08/29 01:03:46;;;;;;;7.32;3.45;;;;;;;14.38;50.73;99506.03;5077896;28;20392;-63
2023/08/29 01:06:13;;;;;;;5.63;3.50;;;;;;;14.39;50.86;99501.50;5061215;28;20028;-64
2023/08/29 01:08:39;;;;;;;5.43;3.45;;;;;;;14.45;50.62;99509.78;5076961;28;20032;-65
2023/08/29 01:11:42;;;;;;;9.85;4.10;;;;;;;14.59;50.55;99519.16;5060378;28;20044;-65
2023/08/29 01:14:32;;;;;;;10.05;3.42;;;;;;;14.58;50.27;99513.94;5078387;28;20098;-64
2023/08/29 01:17:22;;;;;;;5.97;3.58;;;;;;;14.56;50.41;99521.31;5094850;28;20032;-64
2023/08/29 01:19:52;;;;;;;6.93;3.53;;;;;;;14.48;50.57;99514.03;5077079;28;20362;-64
2023/08/29 01:22:42;;;;;;;5.32;3.35;;;;;;;14.55;50.45;99527.72;5094599;28;20111;-65
2023/08/29 01:25:40;;;;;;;5.25;3.70;;;;;;;14.44;50.68;99535.03;5077486;28;20035;-65
2023/08/29 01:28:06;;;;;;;5.95;3.40;;;;;;;14.36;50.83;99529.59;5073031;28;20109;-65
2023/08/29 01:30:33;;;;;;;6.45;3.40;;;;;;;14.34;50.95;99540.50;5077438;28;20132;-64
2023/08/29 01:32:59;;;;;;;6.50;3.20;;;;;;;14.32;51.06;99528.22;5094340;28;20032;-64
2023/08/29 01:35:26;;;;;;;5.43;3.50;;;;;;;14.26;51.00;99528.84;5094025;28;20600;-64
2023/08/29 01:37:51;;;;;;;7.10;3.55;;;;;;;14.19;51.60;99529.44;5077587;28;20043;-63
2023/08/29 01:40:17;;;;;;;7.75;3.63;;;;;;;14.23;51.30;99524.59;5094417;28;20102;-64
2023/08/29 01:42:42;;;;;;;5.50;3.25;;;;;;;14.28;51.17;99532.22;5094470;28;20450;-63
2023/08/29 01:45:08;;;;;;;8.25;3.75;;;;;;;14.25;51.26;99533.38;5060508;28;20059;-65
2023/08/29 01:47:33;;;;;;;4.95;3.55;;;;;;;14.31;51.40;99543.50;5095020;28;20043;-64
2023/08/29 01:50:03;;;;;;;7.13;4.00;;;;;;;14.31;51.35;99537.28;5094078;28;20107;-64
2023/08/29 01:52:31;;;;;;;8.70;3.58;;;;;;;14.32;51.39;99547.88;5094727;28;20504;-65
2023/08/29 01:54:58;;;;;;;5.90;3.53;;;;;;;14.31;51.39;99538.13;5094446;28;20024;-65
2023/08/29 01:57:26;;;;;;;7.63;3.95;;;;;;;14.26;51.56;99529.66;5094487;28;20465;-63
2023/08/29 01:59:53;;;;;;;4.60;3.50;;;;;;;14.30;51.78;99540.97;5075283;28;20027;-64
2023/08/29 02:02:19;;;;;;;6.40;3.50;;;;;;;14.30;51.52;99524.81;5094276;28;20420;-65
2023/08/29 02:04:45;;;;;;;7.47;3.35;;;;;;;14.30;51.86;99535.59;5094525;28;20023;-65
2023/08/29 02:07:10;;;;;;;7.57;3.80;;;;;;;14.35;51.79;99553.00;5076515;28;20023;-65
2023/08/29 02:09:36;;;;;;;6.55;3.60;;;;;;;14.33;51.99;99537.97;5075879;28;20028;-69
2023/08/29 02:12:02;;;;;;;7.35;4.00;;;;;;;14.30;51.84;99533.72;5077045;28;20143;-65
2023/08/29 02:14:28;;;;;;;7.85;3.90;;;;;;;14.33;52.02;99536.13;5093957;28;20078;-65
2023/08/29 02:16:53;;;;;;;8.10;4.20;;;;;;;14.34;52.10;99537.81;5075969;28;20047;-65
2023/08/29 02:19:19;;;;;;;11.52;3.90;;;;;;;14.13;51.96;99500.44;5056027;28;20359;-66
2023/08/29 02:21:45;;;;;;;7.40;3.50;;;;;;;14.34;52.23;99529.72;5073377;28;20122;-64
2023/08/29 02:24:10;;;;;;;6.13;3.90;;;;;;;14.36;52.36;99526.88;5078011;28;20062;-64
2023/08/29 02:26:36;;;;;;;8.85;3.90;;;;;;;14.33;52.23;99524.50;5093851;28;20051;-65
2023/08/29 02:29:01;;;;;;;8.15;3.78;;;;;;;14.28;52.53;99533.03;5094220;28;20024;-64
2023/08/29 02:31:27;;;;;;;8.68;4.47;;;;;;;14.27;52.58;99525.13;5094247;28;20063;-64
2023/08/29 02:33:53;;;;;;;8.23;3.80;;;;;;;14.11;52.61;99501.63;5093095;28;20304;-65
2023/08/29 02:36:19;;;;;;;11.73;4.22;;;;;;;14.22;52.37;99506.75;5093452;28;20406;-66
2023/08/29 02:38:45;;;;;;;7.30;4.00;;;;;;;14.40;52.56;99530.97;5075211;28;20119;-65
2023/08/29 02:41:11;;;;;;;5.13;3.88;;;;;;;14.43;52.07;99546.81;5076611;28;20028;-64
2023/08/29 02:43:37;;;;;;;5.28;3.60;;;;;;;14.19;52.10;99499.81;5094195;28;20442;-65
2023/08/29 02:46:03;;;;;;;8.02;3.97;;;;;;;14.46;52.15;99546.47;5093593;28;20494;-65
2023/08/29 02:48:28;;;;;;;7.35;3.67;;;;;;;14.56;51.95;99540.19;5075723;28;20111;-66
2023/08/29 02:50:54;;;;;;;5.80;3.67;;;;;;;14.30;52.30;99511.38;5093638;28;20028;-65
2023/08/29 02:53:20;;;;;;;4.28;3.53;;;;;;;14.55;52.13;99542.00;5093877;28;20028;-65
2023/08/29 02:55:49;;;;;;;5.38;3.67;;;;;;;14.68;51.93;99547.00;5093291;28;20110;-65
2023/08/29 02:58:15;;;;;;;5.03;3.72;;;;;;;14.60;52.16;99534.31;5092809;28;20028;-65
2023/08/29 03:00:40;;;;;;;9.55;4.00;;;;;;;14.68;52.05;99543.47;5093685;28;20403;-65
2023/08/29 03:03:06;;;;;;;7.22;3.63;;;;;;;14.68;51.79;99527.31;5093646;28;20176;-64
2023/08/29 03:05:32;;;;;;;8.88;3.83;;;;;;;14.73;51.84;99533.94;5092977;28;20024;-65
2023/08/29 03:08:04;;;;;;;7.13;4.07;;;;;;;14.92;51.42;99534.72;5092680;28;20211;-65
2023/08/29 03:10:31;;;;;;;7.70;3.95;;;;;;;14.91;51.61;99525.78;5092423;28;20430;-65
2023/08/29 03:12:57;;;;;;;5.80;3.88;;;;;;;14.93;51.26;99522.91;5093186;28;20028;-64
2023/08/29 03:15:23;;;;;;;8.98;3.78;;;;;;;15.05;51.28;99543.22;5074329;28;20051;-65
2023/08/29 03:17:48;;;;;;;6.60;3.75;;;;;;;15.06;51.21;99539.53;5074540;28;20035;-64
2023/08/29 03:20:15;;;;;;;6.65;3.42;;;;;;;15.06;51.30;99538.66;5075333;28;20093;-63
2023/08/29 03:22:41;;;;;;;6.65;3.85;;;;;;;15.12;50.93;99535.34;5092472;28;20043;-66
2023/08/29 03:25:07;;;;;;;6.18;4.53;;;;;;;15.13;51.29;99536.19;5093270;28;20036;-65
2023/08/29 03:27:33;;;;;;;6.80;3.60;;;;;;;15.19;51.28;99524.75;5074869;28;20469;-64
2023/08/29 03:29:58;;;;;;;7.60;3.67;;;;;;;15.23;51.12;99528.81;5057534;28;20118;-66
2023/08/29 03:32:24;;;;;;;6.95;4.55;;;;;;;15.31;51.05;99528.84;5092925;28;20060;-65
2023/08/29 03:34:55;;;;;;;8.88;4.55;;;;;;;15.41;50.99;99541.34;5092874;28;20028;-66
2023/08/29 03:37:20;;;;;;;7.43;4.10;;;;;;;15.46;50.51;99530.94;5040970;28;20076;-63
2023/08/29 03:39:46;;;;;;;10.93;4.22;;;;;;;15.57;50.22;99532.50;5092743;28;20028;-64
2023/08/29 03:42:12;;;;;;;8.18;4.15;;;;;;;15.45;49.83;99500.41;5092750;28;20035;-66
2023/08/29 03:44:37;;;;;;;7.22;4.20;;;;;;;15.73;49.60;99537.09;5074605;28;20031;-64
2023/08/29 03:47:03;;;;;;;8.13;4.25;;;;;;;15.76;49.48;99520.56;5092415;28;20453;-66
2023/08/29 03:49:29;;;;;;;8.77;4.07;;;;;;;15.82;49.21;99513.66;5074859;28;20378;-64
2023/08/29 03:51:55;;;;;;;8.30;4.07;;;;;;;15.93;49.17;99519.63;5092538;28;20027;-63
2023/08/29 03:54:21;;;;;;;10.93;4.80;;;;;;;16.14;48.62;99522.84;5092188;28;20400;-63
2023/08/29 03:56:48;;;;;;;10.60;4.95;;;;;;;16.31;48.16;99526.41;5092399;28;20031;-65
2023/08/29 03:59:13;;;;;;;7.22;4.65;;;;;;;16.52;47.53;99519.63;5092844;28;20470;-63
2023/08/29 04:01:38;;;;;;;8.52;4.07;;;;;;;17.32;45.72;99520.66;5074498;28;20032;-64
2023/08/29 04:04:04;;;;;;;10.13;4.18;;;;;;;17.72;44.51;99485.44;5053772;28;20037;-64
2023/08/29 04:06:34;;;;;;;9.15;4.57;;;;;;;18.13;44.04;99516.84;5072304;28;20043;-64
2023/08/29 04:08:59;;;;;;;11.35;4.57;;;;;;;18.11;43.50;99497.22;5072635;28;20451;-64
2023/08/29 04:11:25;;;;;;;10.50;4.63;;;;;;;18.16;43.53;99511.06;5086442;28;20075;-64
2023/08/29 04:13:51;;;;;;;10.20;4.63;;;;;;;18.18;43.24;99482.75;5092164;28;20113;-65
2023/08/29 04:16:17;;;;;;;10.38;4.32;;;;;;;18.47;42.77;99529.13;5092594;28;20040;-65
2023/08/29 04:18:42;;;;;;;9.45;5.00;;;;;;;18.34;43.04;99513.47;5092386;28;20185;-64
2023/08/29 04:21:08;;;;;;;8.70;4.28;;;;;;;18.47;42.85;99519.09;5092084;28;20064;-65
2023/08/29 04:23:33;;;;;;;8.85;4.03;;;;;;;18.69;42.46;99518.38;5091895;28;20039;-64
2023/08/29 04:25:59;;;;;;;9.02;4.50;;;;;;;18.67;42.66;99518.59;5092631;28;20427;-64
2023/08/29 04:28:25;;;;;;;11.27;4.88;;;;;;;18.60;42.62;99507.63;5092597;28;20381;-65
2023/08/29 04:30:51;;;;;;;8.30;4.45;;;;;;;18.60;42.74;99506.78;5091324;28;20028;-63
2023/08/29 04:33:16;;;;;;;12.13;4.90;;;;;;;18.60;42.66;99499.50;5074101;28;20085;-64
2023/08/29 04:35:42;;;;;;;9.07;4.68;;;;;;;18.55;42.80;99490.22;5074754;28;20458;-65
2023/08/29 04:38:08;;;;;;;10.10;4.95;;;;;;;18.59;43.02;99514.06;5092051;28;20490;-64
2023/08/29 04:40:35;;;;;;;7.80;4.90;;;;;;;18.51;43.09;99522.28;5091187;28;20043;-67
2023/08/29 04:43:01;;;;;;;14.35;5.18;;;;;;;18.59;42.75;99532.22;5057496;28;20079;-64
2023/08/29 04:45:26;;;;;;;11.88;4.88;;;;;;;18.61;42.70;99535.59;5092491;28;20441;-64
2023/08/29 04:47:52;;;;;;;11.73;4.95;;;;;;;18.72;42.54;99532.41;5057873;28;20506;-64
2023/08/29 04:50:18;;;;;;;9.63;5.25;;;;;;;18.93;42.18;99531.72;5057537;28;20370;-63
2023/08/29 04:52:43;;;;;;;12.10;5.25;;;;;;;19.11;41.88;99535.13;5091944;28;20355;-65
2023/08/29 04:55:09;;;;;;;15.23;5.00;;;;;;;19.19;41.61;99552.16;5074438;28;20126;-68
2023/08/29 04:57:35;;;;;;;13.43;4.80;;;;;;;19.12;41.87;99547.66;5077401;28;20318;-65
2023/08/29 05:00:00;;;;;;;9.85;5.03;;;;;;;18.90;42.19;99550.22;5094862;28;20038;-63
2023/08/29 05:02:27;;;;;;;12.50;4.75;;;;;;;18.72;43.06;99558.72;5095443;28;20028;-64
2023/08/29 05:04:52;;;;;;;10.23;5.13;;;;;;;18.68;42.92;99550.09;5077547;28;20035;-64
2023/08/29 05:07:19;;;;;;;11.63;4.63;;;;;;;18.76;42.79;99538.34;5095067;28;20080;-67
2023/08/29 05:09:44;;;;;;;11.38;5.03;;;;;;;18.69;42.56;99546.34;5095481;28;20043;-64
2023/08/29 05:12:10;;;;;;;13.27;4.95;;;;;;;18.56;42.96;99532.56;5094861;28;20048;-65
2023/08/29 05:14:39;;;;;;;10.93;5.03;;;;;;;18.57;43.16;99551.38;5076474;28;20494;-66
2023/08/29 05:17:06;;;;;;;15.07;4.97;;;;;;;18.44;43.53;99541.16;5095488;28;20063;-64
2023/08/29 05:19:31;;;;;;;8.57;4.97;;;;;;;18.41;43.29;99530.69;5095532;28;20462;-64
2023/08/29 05:21:57;;;;;;;12.55;5.07;;;;;;;18.47;43.21;99540.78;5095168;28;20024;-65
2023/08/29 05:24:22;;;;;;;8.30;4.82;;;;;;;18.46;43.13;99549.94;5077503;28;20450;-64
2023/08/29 05:26:49;;;;;;;10.50;5.13;;;;;;;18.36;43.70;99541.22;5077518;28;20031;-63
2023/08/29 05:29:14;;;;;;;11.68;5.15;;;;;;;17.95;44.09;99498.97;5077683;28;20058;-64
2023/08/29 05:31:40;;;;;;;10.32;4.82;;;;;;;18.12;44.33;99534.97;5095226;28;20024;-64
2023/08/29 05:34:05;;;;;;;12.65;5.05;;;;;;;18.17;44.35;99540.69;5094896;28;20347;-64
2023/08/29 05:36:31;;;;;;;18.70;5.15;;;;;;;18.22;43.88;99521.19;5094695;28;20439;-65
2023/08/29 05:38:56;;;;;;;9.88;5.00;;;;;;;18.26;43.93;99517.09;5085654;28;20088;-65
2023/08/29 05:41:22;;;;;;;10.30;5.13;;;;;;;18.29;44.02;99526.69;5083317;28;20028;-65
2023/08/29 05:43:47;;;;;;;13.73;5.57;;;;;;;18.39;43.67;99521.03;5071181;28;20039;-65
2023/08/29 05:46:13;;;;;;;12.55;5.13;;;;;;;18.46;43.58;99522.84;5078189;28;20039;-64
2023/08/29 05:48:38;;;;;;;12.45;5.50;;;;;;;18.37;43.53;99518.53;5066417;28;20035;-65
2023/08/29 05:51:04;;;;;;;10.25;4.82;;;;;;;18.26;44.05;99510.81;5092840;28;20024;-65
2023/08/29 05:53:29;;;;;;;10.40;5.13;;;;;;;18.01;44.12;99492.00;5093012;28;20399;-68
2023/08/29 05:55:55;;;;;;;12.65;5.15;;;;;;;18.22;44.07;99522.00;5075421;28;20032;-69
2023/08/29 05:58:21;;;;;;;13.55;5.20;;;;;;;18.24;44.26;99510.16;5093017;28;20027;-68
2023/08/29 06:00:48;;;;;;;11.25;5.05;;;;;;;18.03;44.30;99481.84;5075674;28;20164;-68
2023/08/29 06:03:14;;;;;;;13.65;5.03;;;;;;;18.22;44.69;99516.59;5060424;28;20113;-68
2023/08/29 06:05:42;;;;;;;14.35;5.60;;;;;;;18.14;44.35;99513.09;5060017;28;20407;-66
2023/08/29 06:08:08;;;;;;;11.30;5.07;;;;;;;18.17;44.26;99529.84;5075993;28;20439;-68
2023/08/29 06:10:34;;;;;;;12.55;5.00;;;;;;;18.16;44.43;99524.59;5076641;28;20043;-67
2023/08/29 06:13:00;;;;;;;10.25;5.13;;;;;;;18.10;44.60;99522.63;5094348;28;20047;-67
2023/08/29 06:15:26;;;;;;;15.48;5.22;;;;;;;18.02;44.58;99518.97;5094682;28;20056;-67
2023/08/29 06:17:54;;;;;;;11.40;4.95;;;;;;;18.03;44.73;99522.50;5094370;28;20028;-69
2023/08/29 06:20:20;;;;;;;12.70;5.78;;;;;;;18.07;44.58;99540.06;5060186;28;20035;-68
2023/08/29 06:22:46;;;;;;;10.35;5.40;;;;;;;17.94;45.09;99530.66;5060388;28;20093;-67
2023/08/29 06:25:11;;;;;;;12.80;5.88;;;;;;;17.96;45.17;99535.03;5074526;28;20140;-65
2023/08/29 06:27:37;;;;;;;14.25;5.10;;;;;;;17.84;45.70;99540.03;5074908;28;20030;-68
2023/08/29 06:30:04;;;;;;;10.88;5.00;;;;;;;17.84;46.16;99546.28;5093379;28;20047;-67
2023/08/29 06:32:30;;;;;;;19.52;5.70;;;;;;;17.89;45.90;99543.03;5058621;28;20127;-68
2023/08/29 06:34:57;;;;;;;14.45;5.35;;;;;;;17.92;45.48;99545.38;5075845;28;20128;-67
2023/08/29 06:37:22;;;;;;;11.25;5.07;;;;;;;17.72;45.74;99507.91;5093721;28;20090;-68
2023/08/29 06:39:48;;;;;;;11.40;5.60;;;;;;;17.87;45.76;99526.97;5060057;28;20426;-67
2023/08/29 06:42:14;;;;;;;14.18;5.22;;;;;;;18.00;45.75;99547.19;5093835;28;20125;-66
2023/08/29 06:44:40;;;;;;;15.70;5.60;;;;;;;18.04;45.63;99551.25;5076047;28;20085;-67
2023/08/29 06:47:06;;;;;;;12.55;6.07;;;;;;;18.06;45.81;99550.06;5059413;28;20056;-68
2023/08/29 06:49:32;;;;;;;15.45;5.70;;;;;;;18.08;45.86;99547.16;5075818;28;20032;-67
2023/08/29 06:51:57;;;;;;;16.85;5.70;;;;;;;18.16;45.95;99563.38;5075554;28;20035;-67
2023/08/29 06:54:23;;;;;;;13.77;5.63;;;;;;;18.14;45.77;99564.56;5093589;28;20038;-67
2023/08/29 06:56:51;;;;;;;17.02;6.40;;;;;;;18.10;46.19;99560.53;5076111;28;20374;-67
2023/08/29 06:59:17;;;;;;;11.60;5.32;;;;;;;18.02;45.99;99548.75;5075932;28;20050;-66
2023/08/29 07:01:42;;;;;;;15.32;5.80;;;;;;;18.11;46.29;99568.50;5075610;28;20123;-67
2023/08/29 07:04:10;;;;;;;20.02;6.05;;;;;;;18.11;45.80;99563.09;5075288;28;20034;-68
2023/08/29 07:06:36;;;;;;;15.57;5.78;;;;;;;18.06;46.32;99551.94;5058552;28;20098;-67
2023/08/29 07:09:01;;;;;;;13.60;5.80;;;;;;;18.13;46.34;99558.34;5075104;28;20035;-66
2023/08/29 07:11:28;;;;;;;14.63;5.88;;;;;;;18.20;46.07;99548.44;5075036;28;20062;-66
2023/08/29 07:13:53;;;;;;;22.52;5.78;;;;;;;18.42;46.04;99556.75;5092537;28;20028;-68
2023/08/29 07:16:19;;;;;;;16.45;6.15;;;;;;;18.53;45.88;99554.63;5075565;28;20339;-66
2023/08/29 07:18:46;;;;;;;18.95;6.03;;;;;;;18.48;45.45;99534.34;5058652;28;20055;-68
2023/08/29 07:21:12;;;;;;;16.00;5.78;;;;;;;18.81;45.26;99554.88;5093001;28;20393;-70
2023/08/29 07:23:37;;;;;;;18.85;6.30;;;;;;;18.88;45.07;99544.16;5068205;28;20500;-66
2023/08/29 07:26:03;;;;;;;13.93;5.85;;;;;;;19.00;44.67;99556.25;5074841;28;20118;-68
2023/08/29 07:28:28;;;;;;;15.93;5.78;;;;;;;19.01;44.76;99552.50;5093186;28;20040;-68
2023/08/29 07:30:53;;;;;;;14.65;6.50;;;;;;;19.09;44.57;99551.56;5092911;28;20028;-69
2023/08/29 07:33:19;;;;;;;19.27;6.20;;;;;;;19.11;44.46;99545.97;5074573;28;20046;-68
2023/08/29 07:35:47;;;;;;;12.20;6.57;;;;;;;19.20;44.79;99556.56;5092816;28;20470;-68
2023/08/29 07:38:13;;;;;;;16.42;6.18;;;;;;;19.24;44.30;99546.16;5074768;28;20039;-68
2023/08/29 07:40:39;;;;;;;18.00;6.88;;;;;;;19.28;44.33;99533.06;5075245;28;20075;-70
2023/08/29 07:43:06;;;;;;;15.65;6.18;;;;;;;19.38;44.52;99541.72;5092377;28;20055;-72
2023/08/29 07:45:32;;;;;;;10.23;6.22;;;;;;;19.48;44.06;99533.31;5092649;28;20409;-68
2023/08/29 07:47:58;;;;;;;13.65;6.63;;;;;;;19.51;43.91;99539.22;5075082;28;20078;-69
2023/08/29 07:50:24;;;;;;;20.42;6.95;;;;;;;19.41;43.95;99533.25;5058153;28;20031;-69
2023/08/29 07:52:50;;;;;;;23.75;6.80;;;;;;;19.40;44.36;99544.28;5091847;28;20023;-65
2023/08/29 07:55:16;;;;;;;15.85;6.40;;;;;;;19.43;44.31;99549.31;5092057;28;20421;-67
2023/08/29 07:57:41;;;;;;;19.95;6.90;;;;;;;19.27;44.75;99553.09;5074378;28;20091;-67
2023/08/29 08:00:10;;;;;;;12.85;6.50;;;;;;;19.28;44.72;99569.16;5091974;28;20036;-62
2023/08/29 08:02:38;;;;;;;19.00;5.68;;;;;;;19.18;44.92;99563.19;5074601;28;20071;-64
2023/08/29 08:05:05;;;;;;;13.32;5.75;;;;;;;19.03;45.06;99549.63;5092636;28;20081;-64
2023/08/29 08:07:31;;;;;;;15.90;6.55;;;;;;;19.12;45.18;99558.50;5074157;28;20063;-63
2023/08/29 08:09:56;;;;;;;18.00;6.25;;;;;;;19.08;45.38;99558.88;5092384;28;20024;-64
2023/08/29 08:12:22;;;;;;;15.88;5.78;;;;;;;19.04;45.52;99556.72;5085996;28;20044;-68
2023/08/29 08:14:48;;;;;;;12.52;6.32;;;;;;;18.97;45.59;99559.28;5039244;28;20090;-66
2023/08/29 08:17:13;;;;;;;16.40;6.78;;;;;;;19.03;45.88;99574.84;5071808;28;20417;-66
2023/08/29 08:19:38;;;;;;;14.13;6.22;;;;;;;18.88;45.76;99527.88;5053636;28;20024;-66
2023/08/29 08:22:04;;;;;;;15.77;6.25;;;;;;;19.11;45.86;99568.50;5083497;28;20103;-67
2023/08/29 08:24:30;;;;;;;17.70;6.47;;;;;;;19.08;45.73;99567.03;5091778;28;20035;-66
2023/08/29 08:26:55;;;;;;;19.85;6.60;;;;;;;19.11;45.78;99562.25;5073743;28;20032;-71
2023/08/29 08:29:21;;;;;;;16.10;6.50;;;;;;;19.08;45.98;99558.88;5057617;28;20097;-66
2023/08/29 08:31:46;;;;;;;13.85;6.15;;;;;;;19.11;45.87;99560.38;5092090;28;20423;-69
2023/08/29 08:34:12;;;;;;;16.08;7.07;;;;;;;19.12;46.06;99574.78;5061293;28;20109;-64
2023/08/29 08:36:38;;;;;;;13.95;6.20;;;;;;;19.04;46.19;99571.13;5073867;28;20096;-65
2023/08/29 08:39:04;;;;;;;12.85;6.40;;;;;;;18.94;46.34;99565.09;5077665;28;20411;-65
2023/08/29 08:41:31;;;;;;;20.65;6.30;;;;;;;19.00;46.54;99579.84;5060050;28;20521;-71
2023/08/29 08:43:58;;;;;;;17.52;7.40;;;;;;;18.94;46.54;99586.81;5077159;28;20385;-67
2023/08/29 08:46:25;;;;;;;17.52;6.95;;;;;;;18.88;46.72;99590.25;5095866;28;20042;-66
2023/08/29 08:48:51;;;;;;;15.52;6.63;;;;;;;18.83;46.79;99581.84;5077914;28;20115;-66
2023/08/29 08:51:19;;;;;;;16.85;7.10;;;;;;;18.72;46.78;99553.28;5077714;28;20119;-65
2023/08/29 08:53:45;;;;;;;19.77;6.50;;;;;;;18.92;46.65;99581.53;5094801;28;20028;-66
2023/08/29 08:56:10;;;;;;;12.02;6.07;;;;;;;18.87;46.63;99566.88;5095510;28;20350;-70
2023/08/29 08:58:37;;;;;;;21.23;6.97;;;;;;;18.97;46.61;99567.44;5095296;28;20025;-69
2023/08/29 09:01:03;;;;;;;11.98;6.50;;;;;;;18.94;46.59;99570.53;5094835;28;20088;-71
2023/08/29 09:03:28;;;;;;;14.25;6.65;;;;;;;18.87;46.60;99565.00;5093696;28;20107;-71
2023/08/29 09:05:54;;;;;;;17.15;7.18;;;;;;;19.08;46.46;99566.16;5095641;28;20109;-70
2023/08/29 09:08:20;;;;;;;16.83;6.20;;;;;;;19.32;45.70;99561.50;5059849;28;20020;-70
2023/08/29 09:10:47;;;;;;;15.57;7.07;;;;;;;19.52;45.29;99559.03;5094371;28;20396;-70
2023/08/29 09:13:16;;;;;;;15.68;6.32;;;;;;;19.73;44.96;99561.00;5060609;28;20530;-72
2023/08/29 09:15:42;;;;;;;15.73;6.22;;;;;;;19.85;44.38;99565.91;5095605;28;20027;-70
2023/08/29 09:18:13;;;;;;;13.82;6.07;;;;;;;19.99;44.12;99572.38;5077469;28;20355;-70
2023/08/29 09:20:42;;;;;;;18.95;6.00;;;;;;;19.91;44.46;99560.59;5076786;28;20040;-70
2023/08/29 09:23:25;;;;;;;14.18;6.20;;;;;;;20.09;44.29;99556.63;5094803;28;20032;-72
2023/08/29 09:25:58;;;;;;;14.32;6.15;;;;;;;20.22;44.12;99575.75;5076911;28;20028;-71
2023/08/29 09:28:29;;;;;;;17.80;6.65;;;;;;;20.30;44.00;99565.81;5095221;28;20348;-71
2023/08/29 09:31:08;;;;;;;14.43;6.75;;;;;;;20.34;43.93;99562.50;5076443;28;20032;-71
2023/08/29 09:33:35;;;;;;;14.93;6.40;;;;;;;20.11;44.03;99567.28;5076875;28;20039;-71
2023/08/29 09:36:01;;;;;;;12.13;6.45;;;;;;;20.02;44.54;99553.81;5095104;28;20024;-69
2023/08/29 09:38:29;;;;;;;15.10;6.45;;;;;;;20.21;43.89;99576.78;5094195;28;20035;-71
2023/08/29 09:40:55;;;;;;;12.02;6.28;;;;;;;20.32;43.75;99569.19;5071764;28;20035;-71
2023/08/29 09:43:21;;;;;;;21.40;7.65;;;;;;;20.44;43.68;99567.59;5060185;28;20405;-70
2023/08/29 09:45:51;;;;;;;12.65;5.90;;;;;;;20.62;43.62;99578.03;5076271;28;20028;-70
2023/08/29 09:48:17;;;;;;;15.35;6.22;;;;;;;20.61;43.23;99567.34;5057046;28;20033;-70
2023/08/29 09:50:43;;;;;;;12.43;6.70;;;;;;;20.61;42.99;99572.78;5056521;28;20032;-69
2023/08/29 09:53:09;;;;;;;15.15;6.57;;;;;;;20.54;42.75;99561.03;5076020;28;20036;-69
2023/08/29 09:55:46;;;;;;;10.25;6.22;;;;;;;20.71;42.97;99550.69;5094477;28;20036;-70
2023/08/29 09:58:14;;;;;;;16.92;6.22;;;;;;;20.75;42.67;99547.38;5075831;28;20027;-70
2023/08/29 10:00:41;;;;;;;14.60;6.25;;;;;;;20.95;42.13;99563.03;5076534;28;20135;-72
2023/08/29 10:03:08;;;;;;;18.23;6.38;;;;;;;20.92;42.23;99563.44;5059866;28;20067;-70
2023/08/29 10:05:36;;;;;;;11.30;7.03;;;;;;;20.86;42.41;99564.22;5093761;28;20024;-70
2023/08/29 10:08:25;;;;;;;12.93;6.80;;;;;;;20.86;42.72;99562.38;5075931;28;20028;-70
2023/08/29 10:10:55;;;;;;;15.07;6.65;;;;;;;20.50;43.37;99566.00;5072176;28;20374;-71
2023/08/29 10:13:22;;;;;;;14.48;5.63;;;;;;;20.39;43.51;99570.06;5073733;28;20067;-70
2023/08/29 10:15:48;;;;;;;10.82;6.25;;;;;;;20.38;43.72;99573.84;5076426;28;20427;-67
2023/08/29 10:18:15;;;;;;;14.65;6.13;;;;;;;20.30;43.79;99561.19;5094432;28;20055;-67
2023/08/29 10:20:44;;;;;;;15.52;6.63;;;;;;;20.25;44.24;99570.97;5076557;28;20042;-67
2023/08/29 10:23:11;;;;;;;10.13;6.15;;;;;;;20.03;44.38;99574.53;5076019;28;20031;-67
2023/08/29 10:25:38;;;;;;;13.10;6.78;;;;;;;19.81;44.82;99573.63;5092755;28;20085;-65
2023/08/29 10:28:12;;;;;;;13.50;6.57;;;;;;;19.72;45.30;99574.75;5094077;28;20185;-67
2023/08/29 10:30:45;;;;;;;11.68;6.18;;;;;;;19.57;45.34;99572.06;5093968;28;20120;-66
2023/08/29 10:33:12;;;;;;;9.30;6.25;;;;;;;19.48;45.49;99582.16;5076021;28;20039;-67
2023/08/29 10:35:37;;;;;;;10.57;6.10;;;;;;;19.49;45.78;99573.84;5092769;28;20024;-66
2023/08/29 10:38:09;;;;;;;14.45;6.30;;;;;;;19.38;45.63;99536.31;5092676;28;20050;-66
2023/08/29 10:40:35;;;;;;;10.05;5.95;;;;;;;19.59;45.17;99576.28;5091735;28;20035;-67
2023/08/29 10:43:03;;;;;;;14.80;6.72;;;;;;;19.73;44.95;99592.72;5072845;28;20525;-66
2023/08/29 10:45:49;;;;;;;13.35;7.43;;;;;;;19.87;44.89;99581.00;5082028;28;20367;-65
2023/08/29 10:48:22;;;;;;;;;;;;;;;20.17;44.06;99588.28;5074166;28;20035;-66
2023/08/29 10:51:08;;;;;;;13.30;6.82;;;;;;;20.01;44.71;99589.31;5093485;28;19916;-66
2023/08/29 10:53:45;;;;;;;10.45;6.45;;;;;;;19.97;44.06;99574.44;5072481;28;20027;-67
2023/08/29 10:56:13;;;;;;;13.13;6.28;;;;;;;20.02;44.45;99585.59;5093220;28;20067;-67
2023/08/29 10:58:40;;;;;;;13.23;6.60;;;;;;;20.03;44.29;99590.00;5075382;28;20370;-66
2023/08/29 11:01:36;;;;;;;17.23;6.47;;;;;;;19.97;44.75;99593.47;5093826;28;20062;-67
2023/08/29 11:04:13;;;;;;;16.07;6.33;;;;;;;20.06;44.43;99593.16;5075703;28;20131;-67
2023/08/29 11:06:50;;;;;;;15.13;6.30;;;;;;;19.97;44.74;99588.03;5092466;28;20362;-66
2023/08/29 11:09:21;;;;;;;13.35;5.93;;;;;;;19.70;45.06;99572.25;5092526;28;20042;-67
2023/08/29 11:12:20;;;;;;;18.70;6.90;;;;;;;19.86;44.91;99587.47;5091599;28;20397;-68
2023/08/29 11:14:50;;;;;;;17.45;5.97;;;;;;;19.77;45.12;99600.31;5020914;28;20131;-67
2023/08/29 11:17:22;;;;;;;11.43;5.75;;;;;;;19.50;45.06;99561.09;5071422;28;20063;-67
2023/08/29 11:19:52;;;;;;;14.07;6.28;;;;;;;19.69;45.03;99596.84;5079923;28;20039;-67
2023/08/29 11:22:22;;;;;;;15.30;6.55;;;;;;;19.59;45.09;99587.16;5092458;28;20091;-69
2023/08/29 11:24:54;;;;;;;13.23;5.70;;;;;;;19.60;45.28;99586.13;5074437;28;20059;-68
2023/08/29 11:27:21;;;;;;;16.10;6.22;;;;;;;19.56;45.18;99571.22;5058933;28;20378;-68
2023/08/29 11:29:47;;;;;;;15.65;5.90;;;;;;;19.58;45.45;99571.88;5075660;28;20085;-68